Time;durP1;ratioP1;P1;durP2;ratioP2;P2;SDS_P1;SDS_P2;PMS_P1;PMS_P2;Temp;Humidity;BMP_temperature;BMP_pressure;BME280_temperature;BME280_humidity;BME280_pressure;Samples;Min_cycle;Max_cycle;Signal;HPM_P1;HPM_P2
2022/10/16 00:01:43;;;;;;;0.38;0.38;;;;;;;;;;5015775;28;20248;-51
2022/10/16 00:04:10;;;;;;;0.77;0.50;;;;;;;;;;5020535;28;20226;-51
2022/10/16 00:06:36;;;;;;;0.55;0.43;;;;;;;;;;5017899;28;20294;-53
2022/10/16 00:09:03;;;;;;;0.30;0.30;;;;;;;;;;5017860;28;20286;-50
2022/10/16 00:11:33;;;;;;;0.40;0.40;;;;;;;;;;5017864;28;20222;-50
2022/10/16 00:14:01;;;;;;;0.70;0.50;;;;;;;;;;5018252;28;20440;-53
2022/10/16 00:16:28;;;;;;;0.30;0.30;;;;;;;;;;5020957;28;20282;-50
2022/10/16 00:18:55;;;;;;;0.55;0.40;;;;;;;;;;5021072;28;20234;-51
2022/10/16 00:21:24;;;;;;;0.50;0.50;;;;;;;;;;5025304;28;20219;-51
2022/10/16 00:23:53;;;;;;;0.40;0.40;;;;;;;;;;5003942;28;20238;-50
2022/10/16 00:26:19;;;;;;;0.40;0.40;;;;;;;;;;5023270;28;20286;-50
2022/10/16 00:28:47;;;;;;;0.30;0.30;;;;;;;;;;5020514;28;20275;-51
2022/10/16 00:31:14;;;;;;;0.40;0.40;;;;;;;;;;5020346;28;20584;-49
2022/10/16 00:33:40;;;;;;;0.40;0.40;;;;;;;;;;5020737;28;20286;-52
2022/10/16 00:36:09;;;;;;;0.40;0.40;;;;;;;;;;5032105;28;20291;-50
2022/10/16 00:38:37;;;;;;;0.47;0.47;;;;;;;;;;5010610;28;20663;-49
2022/10/16 00:41:09;;;;;;;0.40;0.40;;;;;;;;;;5027367;28;20234;-50
2022/10/16 00:43:56;;;;;;;0.55;0.50;;;;;;;;;;5014954;28;20240;-52
2022/10/16 00:46:24;;;;;;;0.40;0.40;;;;;;;;;;5028868;28;20286;-50
2022/10/16 00:48:54;;;;;;;0.43;0.40;;;;;;;;;;5027943;28;20294;-50
2022/10/16 00:51:23;;;;;;;0.40;0.40;;;;;;;;;;5026046;28;20303;-50
2022/10/16 00:53:50;;;;;;;0.40;0.40;;;;;;;;;;5029022;28;20286;-50
2022/10/16 00:56:16;;;;;;;0.50;0.40;;;;;;;;;;5029139;28;20282;-50
2022/10/16 00:58:43;;;;;;;0.50;0.50;;;;;;;;;;5007720;28;20220;-50
2022/10/16 01:01:09;;;;;;;0.43;0.43;;;;;;;;;;5013098;28;20454;-50
2022/10/16 01:03:37;;;;;;;0.43;0.40;;;;;;;;;;5012880;28;20208;-50
2022/10/16 01:06:35;;;;;;;0.40;0.40;;;;;;;;;;5023407;28;20287;-49
2022/10/16 01:09:15;;;;;;;0.40;0.40;;;;;;;;;;5000211;28;20282;-50
2022/10/16 01:11:49;;;;;;;0.40;0.40;;;;;;;;;;5007935;28;20669;-51
2022/10/16 01:14:45;;;;;;;0.40;0.40;;;;;;;;;;5009538;28;20285;-52
2022/10/16 01:17:17;;;;;;;0.40;0.40;;;;;;;;;;5025316;28;20329;-50
2022/10/16 01:20:01;;;;;;;0.50;0.50;;;;;;;;;;5011636;28;20298;-51
2022/10/16 01:22:38;;;;;;;0.80;0.40;;;;;;;;;;5011637;28;20239;-51
2022/10/16 01:25:09;;;;;;;0.40;0.40;;;;;;;;;;5027798;28;20342;-50
2022/10/16 01:27:36;;;;;;;0.40;0.40;;;;;;;;;;5012021;28;20227;-50
2022/10/16 01:30:25;;;;;;;0.45;0.45;;;;;;;;;;5011458;28;20195;-51
2022/10/16 01:33:08;;;;;;;0.33;0.33;;;;;;;;;;5030408;28;20303;-51
2022/10/16 01:35:38;;;;;;;0.65;0.50;;;;;;;;;;5025777;28;20286;-50
2022/10/16 01:38:10;;;;;;;0.40;0.40;;;;;;;;;;5009405;28;20302;-51
2022/10/16 01:40:39;;;;;;;0.60;0.40;;;;;;;;;;5013815;28;20231;-52
2022/10/16 01:43:09;;;;;;;0.40;0.40;;;;;;;;;;5026935;28;20294;-50
2022/10/16 01:45:36;;;;;;;0.40;0.40;;;;;;;;;;5005689;28;20736;-50
2022/10/16 01:48:07;;;;;;;0.40;0.40;;;;;;;;;;5031927;28;20227;-53
2022/10/16 01:50:38;;;;;;;0.47;0.47;;;;;;;;;;5011568;28;20286;-50
2022/10/16 01:53:05;;;;;;;0.30;0.30;;;;;;;;;;5028634;28;20306;-51
2022/10/16 01:55:35;;;;;;;0.50;0.50;;;;;;;;;;5028809;28;20240;-50
2022/10/16 01:58:03;;;;;;;0.32;0.32;;;;;;;;;;5021599;28;20299;-51
2022/10/16 02:00:30;;;;;;;0.30;0.30;;;;;;;;;;5029761;28;20294;-50
2022/10/16 02:02:58;;;;;;;0.40;0.40;;;;;;;;;;5011516;28;20319;-50
2022/10/16 02:05:33;;;;;;;0.50;0.50;;;;;;;;;;5024134;28;20195;-50
2022/10/16 02:07:59;;;;;;;0.77;0.40;;;;;;;;;;5010517;28;20283;-52
2022/10/16 02:10:30;;;;;;;0.40;0.40;;;;;;;;;;5009308;28;20196;-50
2022/10/16 02:13:05;;;;;;;0.40;0.40;;;;;;;;;;5009787;28;20215;-49
2022/10/16 02:15:32;;;;;;;0.40;0.30;;;;;;;;;;5010582;28;20221;-52
2022/10/16 02:17:58;;;;;;;0.40;0.40;;;;;;;;;;5025314;28;20228;-50
2022/10/16 02:20:27;;;;;;;0.50;0.50;;;;;;;;;;5029111;28;20731;-50
2022/10/16 02:22:54;;;;;;;0.43;0.43;;;;;;;;;;5007770;28;20770;-51
2022/10/16 02:25:31;;;;;;;0.43;0.40;;;;;;;;;;5009276;28;20294;-50
2022/10/16 02:28:09;;;;;;;0.60;0.50;;;;;;;;;;5008637;28;20196;-52
2022/10/16 02:30:46;;;;;;;0.63;0.40;;;;;;;;;;5006266;28;20290;-50
2022/10/16 02:33:13;;;;;;;0.40;0.40;;;;;;;;;;5010778;28;20254;-51
2022/10/16 02:35:40;;;;;;;0.30;0.30;;;;;;;;;;5011307;28;20271;-49
2022/10/16 02:38:08;;;;;;;0.25;0.25;;;;;;;;;;5008126;28;20343;-51
2022/10/16 02:40:40;;;;;;;0.30;0.30;;;;;;;;;;5021989;28;20188;-53
2022/10/16 02:43:06;;;;;;;0.55;0.40;;;;;;;;;;5008687;28;20311;-51
2022/10/16 02:45:33;;;;;;;0.40;0.40;;;;;;;;;;5024314;28;20537;-50
2022/10/16 02:47:59;;;;;;;0.30;0.30;;;;;;;;;;5008211;28;20207;-49
2022/10/16 02:50:25;;;;;;;0.60;0.40;;;;;;;;;;5029453;28;20739;-50
2022/10/16 02:52:52;;;;;;;0.40;0.40;;;;;;;;;;5024124;28;20310;-49
2022/10/16 02:55:18;;;;;;;0.50;0.50;;;;;;;;;;5025523;28;20843;-50
2022/10/16 02:57:45;;;;;;;0.50;0.50;;;;;;;;;;5024361;28;20282;-51
2022/10/16 03:00:14;;;;;;;0.30;0.30;;;;;;;;;;5025744;28;20312;-49
2022/10/16 03:02:41;;;;;;;0.40;0.40;;;;;;;;;;5020179;28;20341;-50
2022/10/16 03:05:08;;;;;;;0.57;0.50;;;;;;;;;;5028478;28;20290;-50
2022/10/16 03:07:34;;;;;;;0.50;0.40;;;;;;;;;;5027923;28;20199;-49
2022/10/16 03:10:01;;;;;;;0.40;0.40;;;;;;;;;;5021910;28;20294;-52
2022/10/16 03:12:28;;;;;;;0.40;0.40;;;;;;;;;;4993496;28;20217;-50
2022/10/16 03:14:57;;;;;;;0.35;0.35;;;;;;;;;;5026942;28;20223;-48
2022/10/16 03:17:24;;;;;;;0.70;0.50;;;;;;;;;;5029931;28;20282;-49
2022/10/16 03:19:51;;;;;;;0.50;0.50;;;;;;;;;;5023874;28;20220;-53
2022/10/16 03:22:18;;;;;;;0.40;0.40;;;;;;;;;;5031309;28;20306;-52
2022/10/16 03:24:44;;;;;;;0.38;0.38;;;;;;;;;;5028649;28;20291;-50
2022/10/16 03:27:10;;;;;;;0.50;0.45;;;;;;;;;;5010689;28;20731;-51
2022/10/16 03:29:36;;;;;;;0.63;0.60;;;;;;;;;;5024441;28;20202;-50
2022/10/16 03:32:03;;;;;;;0.43;0.43;;;;;;;;;;5027723;28;20314;-50
2022/10/16 03:34:29;;;;;;;0.52;0.52;;;;;;;;;;5027154;28;20278;-53
2022/10/16 03:36:55;;;;;;;0.50;0.50;;;;;;;;;;5025366;28;21024;-52
2022/10/16 03:39:22;;;;;;;0.50;0.50;;;;;;;;;;5029817;28;20306;-53
2022/10/16 03:41:48;;;;;;;0.40;0.40;;;;;;;;;;5027192;28;20263;-51
2022/10/16 03:44:14;;;;;;;0.50;0.50;;;;;;;;;;5026651;28;20294;-51
2022/10/16 03:46:41;;;;;;;0.40;0.40;;;;;;;;;;5023401;28;20295;-50
2022/10/16 03:49:07;;;;;;;0.50;0.40;;;;;;;;;;5023483;28;20192;-50
2022/10/16 03:51:35;;;;;;;0.40;0.40;;;;;;;;;;5023940;28;20221;-52
2022/10/16 03:54:01;;;;;;;0.40;0.40;;;;;;;;;;5023810;28;20198;-53
2022/10/16 03:56:28;;;;;;;0.50;0.50;;;;;;;;;;5021378;28;20299;-49
2022/10/16 03:58:54;;;;;;;0.50;0.50;;;;;;;;;;5025603;28;20247;-51
2022/10/16 04:01:20;;;;;;;0.50;0.50;;;;;;;;;;5027912;28;20569;-52
2022/10/16 04:03:47;;;;;;;0.40;0.40;;;;;;;;;;5024960;28;20310;-51
2022/10/16 04:06:13;;;;;;;0.43;0.43;;;;;;;;;;5027640;28;20223;-55
2022/10/16 04:08:43;;;;;;;0.50;0.50;;;;;;;;;;5027817;28;20651;-52
2022/10/16 04:11:09;;;;;;;0.47;0.47;;;;;;;;;;5021451;28;20283;-53
2022/10/16 04:13:36;;;;;;;0.50;0.50;;;;;;;;;;5025854;28;20286;-53
2022/10/16 04:16:02;;;;;;;0.60;0.47;;;;;;;;;;5025502;28;20223;-53
2022/10/16 04:18:29;;;;;;;0.43;0.43;;;;;;;;;;5026949;28;20230;-50
2022/10/16 04:20:55;;;;;;;0.50;0.50;;;;;;;;;;5024618;28;21776;-52
2022/10/16 04:23:22;;;;;;;0.50;0.40;;;;;;;;;;5024390;28;20302;-52
2022/10/16 04:25:49;;;;;;;0.50;0.50;;;;;;;;;;5028681;28;20553;-53
2022/10/16 04:28:15;;;;;;;0.60;0.40;;;;;;;;;;5022214;28;20208;-54
2022/10/16 04:30:41;;;;;;;0.52;0.50;;;;;;;;;;5018761;28;20286;-54
2022/10/16 04:33:09;;;;;;;0.60;0.50;;;;;;;;;;5028721;28;20259;-53
2022/10/16 04:35:36;;;;;;;0.50;0.50;;;;;;;;;;5026729;28;20199;-50
2022/10/16 04:38:02;;;;;;;0.40;0.40;;;;;;;;;;5024175;28;20278;-54
2022/10/16 04:40:29;;;;;;;0.55;0.50;;;;;;;;;;5025835;28;20298;-51
2022/10/16 04:42:55;;;;;;;0.50;0.50;;;;;;;;;;5026299;28;20310;-52
2022/10/16 04:45:21;;;;;;;0.35;0.35;;;;;;;;;;5023691;28;20350;-53
2022/10/16 04:47:48;;;;;;;0.50;0.50;;;;;;;;;;5024507;28;20282;-53
2022/10/16 04:50:14;;;;;;;0.50;0.50;;;;;;;;;;5024036;28;20287;-54
2022/10/16 04:52:40;;;;;;;0.40;0.40;;;;;;;;;;5022948;28;20786;-50
2022/10/16 04:55:07;;;;;;;0.50;0.50;;;;;;;;;;5019942;28;20287;-53
2022/10/16 04:57:33;;;;;;;0.40;0.40;;;;;;;;;;5025869;28;20196;-54
2022/10/16 05:00:00;;;;;;;0.40;0.40;;;;;;;;;;5026350;28;20439;-50
2022/10/16 05:02:26;;;;;;;0.45;0.45;;;;;;;;;;5030379;28;20222;-54
2022/10/16 05:04:52;;;;;;;0.75;0.50;;;;;;;;;;5028292;28;20315;-52
2022/10/16 05:07:19;;;;;;;0.40;0.40;;;;;;;;;;5030418;28;20283;-50
2022/10/16 05:09:45;;;;;;;0.40;0.40;;;;;;;;;;5026312;28;20275;-50
2022/10/16 05:12:11;;;;;;;0.40;0.40;;;;;;;;;;5028484;28;20315;-51
2022/10/16 05:14:38;;;;;;;0.50;0.50;;;;;;;;;;5028151;28;20298;-50
2022/10/16 05:17:04;;;;;;;0.40;0.40;;;;;;;;;;5029990;28;20290;-50
2022/10/16 05:19:30;;;;;;;0.45;0.40;;;;;;;;;;5030742;28;20299;-54
2022/10/16 05:21:57;;;;;;;0.40;0.40;;;;;;;;;;5027978;28;20303;-50
2022/10/16 05:24:23;;;;;;;0.50;0.47;;;;;;;;;;5028153;28;20278;-54
2022/10/16 05:26:50;;;;;;;0.30;0.30;;;;;;;;;;5028864;28;20282;-52
2022/10/16 05:29:16;;;;;;;0.50;0.50;;;;;;;;;;5012700;28;20283;-50
2022/10/16 05:31:42;;;;;;;0.60;0.50;;;;;;;;;;5025939;28;20302;-53
2022/10/16 05:34:09;;;;;;;0.52;0.52;;;;;;;;;;5028277;28;20497;-52
2022/10/16 05:36:35;;;;;;;0.40;0.40;;;;;;;;;;5030222;28;20644;-51
2022/10/16 05:39:02;;;;;;;0.90;0.80;;;;;;;;;;5029381;28;20294;-50
2022/10/16 05:41:28;;;;;;;0.75;0.40;;;;;;;;;;5028085;28;20226;-54
2022/10/16 05:43:55;;;;;;;0.60;0.60;;;;;;;;;;5026885;28;20203;-54
2022/10/16 05:46:21;;;;;;;0.80;0.70;;;;;;;;;;5028683;28;20286;-53
2022/10/16 05:48:47;;;;;;;0.80;0.80;;;;;;;;;;5025103;28;20291;-54
2022/10/16 05:51:14;;;;;;;0.40;0.40;;;;;;;;;;5029045;28;20282;-54
2022/10/16 05:53:42;;;;;;;0.75;0.75;;;;;;;;;;5030074;28;20279;-53
2022/10/16 05:56:11;;;;;;;1.70;1.00;;;;;;;;;;5028221;28;20582;-52
2022/10/16 05:58:40;;;;;;;1.05;0.95;;;;;;;;;;5031828;28;20293;-54
2022/10/16 06:01:09;;;;;;;2.50;1.00;;;;;;;;;;5026742;28;20283;-52
2022/10/16 06:03:36;;;;;;;0.50;0.50;;;;;;;;;;5029518;28;20204;-49
2022/10/16 06:06:14;;;;;;;0.80;0.80;;;;;;;;;;5028836;28;20228;-51
2022/10/16 06:08:41;;;;;;;0.50;0.50;;;;;;;;;;5029460;28;20282;-52
2022/10/16 06:11:10;;;;;;;0.50;0.50;;;;;;;;;;5027529;28;20279;-51
2022/10/16 06:13:37;;;;;;;0.40;0.40;;;;;;;;;;5024231;28;20195;-52
2022/10/16 06:16:04;;;;;;;0.40;0.40;;;;;;;;;;5026545;28;21341;-51
2022/10/16 06:18:30;;;;;;;0.50;0.50;;;;;;;;;;5030445;28;20274;-52
2022/10/16 06:20:58;;;;;;;0.90;0.85;;;;;;;;;;5026813;28;20663;-51
2022/10/16 06:23:25;;;;;;;0.52;0.50;;;;;;;;;;5029651;28;20299;-52
2022/10/16 06:25:51;;;;;;;0.45;0.45;;;;;;;;;;5032475;28;20736;-50
2022/10/16 06:28:18;;;;;;;0.55;0.50;;;;;;;;;;5030603;28;20758;-50
2022/10/16 06:30:45;;;;;;;0.50;0.50;;;;;;;;;;5026405;28;20573;-51
2022/10/16 06:33:12;;;;;;;0.47;0.47;;;;;;;;;;5026349;28;20306;-53
2022/10/16 06:35:38;;;;;;;0.40;0.40;;;;;;;;;;5027983;28;20235;-50
2022/10/16 06:38:04;;;;;;;0.40;0.40;;;;;;;;;;5027049;28;20192;-50
2022/10/16 06:40:31;;;;;;;0.40;0.40;;;;;;;;;;5027674;28;20311;-50
2022/10/16 06:42:57;;;;;;;0.80;0.60;;;;;;;;;;5028902;28;20302;-54
2022/10/16 06:45:23;;;;;;;0.40;0.40;;;;;;;;;;5025564;28;20644;-53
2022/10/16 06:47:50;;;;;;;0.50;0.50;;;;;;;;;;5026262;28;20302;-52
2022/10/16 06:50:16;;;;;;;0.57;0.50;;;;;;;;;;5028739;28;20206;-50
2022/10/16 06:52:42;;;;;;;0.50;0.50;;;;;;;;;;5027385;28;20298;-50
2022/10/16 06:55:08;;;;;;;0.40;0.40;;;;;;;;;;5022421;28;20633;-50
2022/10/16 06:57:35;;;;;;;0.50;0.50;;;;;;;;;;5027777;28;20286;-50
2022/10/16 07:00:02;;;;;;;0.60;0.60;;;;;;;;;;5030107;28;20562;-50
2022/10/16 07:02:29;;;;;;;0.47;0.47;;;;;;;;;;5022546;28;20736;-50
2022/10/16 07:04:56;;;;;;;0.60;0.50;;;;;;;;;;5024978;28;20683;-53
2022/10/16 07:07:24;;;;;;;0.50;0.50;;;;;;;;;;5023809;28;20347;-54
2022/10/16 07:09:50;;;;;;;0.60;0.57;;;;;;;;;;5023172;28;20192;-53
2022/10/16 07:12:17;;;;;;;0.40;0.40;;;;;;;;;;5022912;28;20302;-51
2022/10/16 07:14:43;;;;;;;0.45;0.40;;;;;;;;;;5025621;28;20227;-51
2022/10/16 07:17:10;;;;;;;0.50;0.50;;;;;;;;;;5025828;28;20716;-52
2022/10/16 07:19:36;;;;;;;0.55;0.55;;;;;;;;;;5021022;28;20216;-54
2022/10/16 07:22:03;;;;;;;0.70;0.70;;;;;;;;;;5026948;28;20251;-50
2022/10/16 07:24:29;;;;;;;0.80;0.70;;;;;;;;;;5027974;28;20196;-49
2022/10/16 07:26:55;;;;;;;0.50;0.50;;;;;;;;;;5029648;28;20699;-54
2022/10/16 07:29:22;;;;;;;0.40;0.40;;;;;;;;;;5024374;28;20203;-49
2022/10/16 07:31:49;;;;;;;0.68;0.40;;;;;;;;;;5003899;28;20310;-51
2022/10/16 07:34:17;;;;;;;0.50;0.50;;;;;;;;;;5024356;28;20196;-50
2022/10/16 07:36:44;;;;;;;0.50;0.50;;;;;;;;;;5002024;28;20246;-52
2022/10/16 07:39:10;;;;;;;0.80;0.40;;;;;;;;;;5026517;28;20223;-51
2022/10/16 07:41:37;;;;;;;0.50;0.50;;;;;;;;;;5026240;28;20770;-53
2022/10/16 07:44:03;;;;;;;0.88;0.50;;;;;;;;;;5025008;28;20663;-52
2022/10/16 07:46:30;;;;;;;0.40;0.40;;;;;;;;;;5025078;28;20226;-50
2022/10/16 07:48:56;;;;;;;0.47;0.47;;;;;;;;;;5027096;28;20229;-51
2022/10/16 07:51:24;;;;;;;0.50;0.50;;;;;;;;;;5025759;28;20771;-53
2022/10/16 07:53:51;;;;;;;0.40;0.40;;;;;;;;;;5024621;28;20250;-50
2022/10/16 07:56:18;;;;;;;0.40;0.40;;;;;;;;;;5027036;28;20196;-52
2022/10/16 07:58:45;;;;;;;0.40;0.40;;;;;;;;;;5026986;28;20275;-50
2022/10/16 08:01:14;;;;;;;1.02;0.82;;;;;;;;;;5027545;28;20302;-51
2022/10/16 08:03:46;;;;;;;0.60;0.40;;;;;;;;;;5027476;28;20302;-50
2022/10/16 08:06:12;;;;;;;0.60;0.60;;;;;;;;;;5026869;28;20282;-52
2022/10/16 08:08:39;;;;;;;0.60;0.60;;;;;;;;;;5028550;28;20597;-50
2022/10/16 08:11:05;;;;;;;0.30;0.30;;;;;;;;;;5027481;28;20213;-51
2022/10/16 08:13:32;;;;;;;0.55;0.50;;;;;;;;;;5021016;28;20227;-52
2022/10/16 08:15:58;;;;;;;0.50;0.50;;;;;;;;;;5023602;28;20291;-50
2022/10/16 08:18:25;;;;;;;0.55;0.50;;;;;;;;;;5025181;28;20195;-50
2022/10/16 08:20:57;;;;;;;0.28;0.28;;;;;;;;;;5022360;28;20215;-51
2022/10/16 08:23:25;;;;;;;0.80;0.47;;;;;;;;;;5024626;28;20335;-49
2022/10/16 08:25:53;;;;;;;0.50;0.50;;;;;;;;;;5026713;28;20453;-50
2022/10/16 08:28:20;;;;;;;0.40;0.40;;;;;;;;;;5029437;28;20226;-50
2022/10/16 08:30:46;;;;;;;0.60;0.50;;;;;;;;;;5026708;28;20230;-51
2022/10/16 08:33:13;;;;;;;0.50;0.50;;;;;;;;;;5027178;28;20233;-49
2022/10/16 08:35:39;;;;;;;0.40;0.40;;;;;;;;;;5033020;28;20202;-51
2022/10/16 08:38:06;;;;;;;0.60;0.50;;;;;;;;;;5032287;28;20278;-50
2022/10/16 08:40:34;;;;;;;0.50;0.50;;;;;;;;;;5027338;28;20212;-51
2022/10/16 08:43:25;;;;;;;0.35;0.35;;;;;;;;;;5009815;28;20639;-53
2022/10/16 08:46:21;;;;;;;0.50;0.50;;;;;;;;;;5027430;28;20200;-51
2022/10/16 08:48:50;;;;;;;0.43;0.43;;;;;;;;;;4975193;28;20292;-53
2022/10/16 08:51:39;;;;;;;0.50;0.50;;;;;;;;;;5026740;28;20192;-50
2022/10/16 08:54:26;;;;;;;1.00;0.90;;;;;;;;;;5026373;28;20196;-50
2022/10/16 08:56:55;;;;;;;0.88;0.70;;;;;;;;;;5023771;28;20581;-51
2022/10/16 08:59:21;;;;;;;1.75;1.20;;;;;;;;;;5010215;28;20586;-49
2022/10/16 09:01:51;;;;;;;3.10;1.95;;;;;;;;;;5027958;28;20618;-51
2022/10/16 09:04:40;;;;;;;1.95;1.30;;;;;;;;;;5013006;28;20766;-51
2022/10/16 09:07:24;;;;;;;1.48;1.20;;;;;;;;;;5007575;28;20295;-50
2022/10/16 09:09:56;;;;;;;0.80;0.70;;;;;;;;;;5025664;28;20226;-51
2022/10/16 09:13:02;;;;;;;1.10;0.55;;;;;;;;;;5027445;28;20669;-52
2022/10/16 09:15:46;;;;;;;1.20;0.60;;;;;;;;;;4927229;29;20766;-50
2022/10/16 09:18:23;;;;;;;0.70;0.57;;;;;;;;;;5022086;28;20282;-51
2022/10/16 09:21:14;;;;;;;0.80;0.80;;;;;;;;;;5004662;28;20220;-52
2022/10/16 09:23:41;;;;;;;1.50;1.25;;;;;;;;;;5010044;28;20335;-50
2022/10/16 09:26:13;;;;;;;2.63;1.77;;;;;;;;;;5025744;28;20274;-48
2022/10/16 09:28:40;;;;;;;2.40;1.65;;;;;;;;;;5026584;28;20202;-50
2022/10/16 09:31:13;;;;;;;4.03;2.78;;;;;;;;;;5026839;28;20283;-50
2022/10/16 09:33:40;;;;;;;2.97;2.10;;;;;;;;;;5013005;28;20299;-51
2022/10/16 09:36:09;;;;;;;4.68;3.00;;;;;;;;;;5030136;28;20223;-49
2022/10/16 09:38:36;;;;;;;6.22;2.70;;;;;;;;;;5008606;28;20275;-50
2022/10/16 09:41:14;;;;;;;4.32;3.10;;;;;;;;;;5034503;28;20250;-54
2022/10/16 09:43:46;;;;;;;4.60;2.90;;;;;;;;;;5005425;28;20287;-53
2022/10/16 09:46:29;;;;;;;4.82;2.53;;;;;;;;;;5028363;28;20298;-55
2022/10/16 09:49:00;;;;;;;3.40;2.15;;;;;;;;;;5028398;28;20465;-56
2022/10/16 09:51:38;;;;;;;4.05;2.20;;;;;;;;;;5023703;28;20212;-55
2022/10/16 09:54:10;;;;;;;2.78;2.10;;;;;;;;;;5026265;28;20689;-54
2022/10/16 09:56:41;;;;;;;3.85;2.20;;;;;;;;;;5030118;28;20223;-53
2022/10/16 09:59:11;;;;;;;4.55;1.90;;;;;;;;;;5027992;28;20278;-54
2022/10/16 10:01:40;;;;;;;2.55;1.70;;;;;;;;;;5027135;28;20302;-54
2022/10/16 10:04:07;;;;;;;4.55;2.38;;;;;;;;;;5027068;28;20290;-53
2022/10/16 10:06:37;;;;;;;4.15;1.88;;;;;;;;;;5028475;28;20298;-52
2022/10/16 10:09:15;;;;;;;5.78;2.00;;;;;;;;;;5027230;28;20211;-53
2022/10/16 10:11:47;;;;;;;3.85;2.10;;;;;;;;;;5029441;28;20294;-55
2022/10/16 10:14:20;;;;;;;4.07;2.20;;;;;;;;;;5011160;28;20191;-54
2022/10/16 10:16:47;;;;;;;3.88;2.38;;;;;;;;;;5023539;28;20195;-55
2022/10/16 10:19:18;;;;;;;2.75;2.03;;;;;;;;;;5028288;28;20631;-54
2022/10/16 10:21:45;;;;;;;4.47;2.00;;;;;;;;;;5027083;28;20223;-52
2022/10/16 10:24:14;;;;;;;4.03;1.90;;;;;;;;;;5027220;28;20206;-54
2022/10/16 10:27:05;;;;;;;3.28;1.75;;;;;;;;;;5021796;28;20191;-55
2022/10/16 10:29:54;;;;;;;5.18;2.25;;;;;;;;;;5028157;28;20354;-54
2022/10/16 10:32:30;;;;;;;3.40;2.20;;;;;;;;;;5012336;28;20219;-54
2022/10/16 10:35:21;;;;;;;2.22;1.92;;;;;;;;;;5025860;28;20287;-53
2022/10/16 10:38:12;;;;;;;4.50;2.05;;;;;;;;;;5030419;28;20510;-54
2022/10/16 10:40:57;;;;;;;5.72;2.03;;;;;;;;;;5024415;28;20259;-53
2022/10/16 10:43:39;;;;;;;2.78;1.67;;;;;;;;;;5020555;28;20215;-52
2022/10/16 10:46:10;;;;;;;4.18;1.83;;;;;;;;;;5011876;28;20288;-55
2022/10/16 10:48:55;;;;;;;4.28;1.90;;;;;;;;;;5006335;28;20282;-49
2022/10/16 10:51:36;;;;;;;2.63;1.73;;;;;;;;;;5000927;28;20215;-50
2022/10/16 10:54:24;;;;;;;3.28;2.10;;;;;;;;;;5028516;28;20217;-53
2022/10/16 10:57:06;;;;;;;4.53;2.22;;;;;;;;;;5028894;28;20286;-52
2022/10/16 10:59:38;;;;;;;5.20;2.20;;;;;;;;;;5007329;28;20198;-54
2022/10/16 11:02:29;;;;;;;4.72;2.20;;;;;;;;;;5026728;28;20306;-52
2022/10/16 11:05:28;;;;;;;3.08;1.90;;;;;;;;;;5028108;28;20207;-50
2022/10/16 11:08:09;;;;;;;3.70;1.92;;;;;;;;;;5028774;28;20286;-53
2022/10/16 11:10:57;;;;;;;2.85;2.10;;;;;;;;;;5001074;28;20275;-50
2022/10/16 11:13:40;;;;;;;3.67;2.17;;;;;;;;;;5009201;28;20302;-54
2022/10/16 11:16:15;;;;;;;4.25;1.90;;;;;;;;;;5002514;28;20758;-54
2022/10/16 11:18:54;;;;;;;4.07;1.95;;;;;;;;;;5010825;28;20199;-52
2022/10/16 11:21:21;;;;;;;3.50;2.20;;;;;;;;;;5010281;28;20219;-50
2022/10/16 11:23:53;;;;;;;2.78;1.90;;;;;;;;;;5023517;28;20210;-51
2022/10/16 11:26:21;;;;;;;4.43;2.10;;;;;;;;;;5013881;28;20672;-53
2022/10/16 11:28:49;;;;;;;2.15;1.95;;;;;;;;;;5029201;28;20298;-54
2022/10/16 11:31:22;;;;;;;3.58;1.70;;;;;;;;;;5002113;28;20580;-53
2022/10/16 11:33:55;;;;;;;3.72;2.03;;;;;;;;;;5024987;28;20209;-53
2022/10/16 11:36:25;;;;;;;3.20;1.70;;;;;;;;;;5011375;28;20199;-53
2022/10/16 11:39:19;;;;;;;3.00;2.03;;;;;;;;;;5010421;28;20701;-53
2022/10/16 11:41:51;;;;;;;3.03;1.70;;;;;;;;;;5023556;28;20306;-52
2022/10/16 11:44:59;;;;;;;1.67;1.45;;;;;;;;;;5009252;28;20199;-53
2022/10/16 11:47:27;;;;;;;2.90;1.50;;;;;;;;;;5002488;28;20269;-51
2022/10/16 11:50:43;;;;;;;2.60;1.50;;;;;;;;;;5014358;28;20199;-54
2022/10/16 11:53:22;;;;;;;2.85;1.83;;;;;;;;;;5018784;28;20302;-50
2022/10/16 11:55:48;;;;;;;2.30;1.70;;;;;;;;;;5010231;28;20321;-53
2022/10/16 11:58:33;;;;;;;2.45;1.48;;;;;;;;;;5024277;28;20208;-52
2022/10/16 12:01:16;;;;;;;2.63;1.60;;;;;;;;;;5027417;28;20230;-53
2022/10/16 12:03:51;;;;;;;2.28;1.42;;;;;;;;;;5024514;28;21230;-52
2022/10/16 12:06:31;;;;;;;2.15;1.60;;;;;;;;;;5025096;28;20195;-50
2022/10/16 12:08:59;;;;;;;2.30;1.60;;;;;;;;;;5009036;28;20195;-50
2022/10/16 12:11:25;;;;;;;3.35;1.88;;;;;;;;;;5024767;28;20211;-54
2022/10/16 12:14:07;;;;;;;2.45;1.90;;;;;;;;;;5028884;28;20203;-54
2022/10/16 12:16:37;;;;;;;1.65;1.50;;;;;;;;;;5002395;28;20199;-52
2022/10/16 12:19:17;;;;;;;2.55;1.60;;;;;;;;;;5026317;28;20294;-52
2022/10/16 12:21:44;;;;;;;2.95;1.60;;;;;;;;;;5023029;28;20227;-54
2022/10/16 12:24:36;;;;;;;2.33;1.70;;;;;;;;;;5018992;28;20290;-52
2022/10/16 12:27:05;;;;;;;2.30;1.67;;;;;;;;;;5010397;28;20257;-53
2022/10/16 12:29:34;;;;;;;4.15;1.92;;;;;;;;;;5027536;28;20227;-52
2022/10/16 12:32:02;;;;;;;2.75;1.83;;;;;;;;;;5023298;28;20367;-51
2022/10/16 12:34:41;;;;;;;4.03;2.60;;;;;;;;;;5024333;28;20279;-52
2022/10/16 12:37:20;;;;;;;2.20;1.45;;;;;;;;;;5023885;28;20656;-50
2022/10/16 12:39:48;;;;;;;4.13;1.70;;;;;;;;;;5008471;28;20278;-50
2022/10/16 12:42:23;;;;;;;3.38;2.22;;;;;;;;;;5006000;28;20286;-50
2022/10/16 12:44:50;;;;;;;5.00;1.70;;;;;;;;;;5027793;28;20241;-54
2022/10/16 12:47:36;;;;;;;2.72;1.77;;;;;;;;;;5027101;28;20617;-52
2022/10/16 12:50:02;;;;;;;2.10;1.63;;;;;;;;;;5024090;28;20278;-53
2022/10/16 12:52:38;;;;;;;2.35;1.55;;;;;;;;;;5025369;28;20219;-55
2022/10/16 12:55:06;;;;;;;2.10;1.80;;;;;;;;;;5031342;28;20666;-54
2022/10/16 12:57:40;;;;;;;2.00;1.80;;;;;;;;;;5011583;28;20715;-54
2022/10/16 13:00:25;;;;;;;1.58;1.30;;;;;;;;;;5025319;28;20195;-51
2022/10/16 13:03:29;;;;;;;3.30;1.27;;;;;;;;;;5024851;28;20739;-52
2022/10/16 13:06:25;;;;;;;1.75;1.38;;;;;;;;;;5026734;28;20214;-49
2022/10/16 13:09:26;;;;;;;3.05;1.33;;;;;;;;;;5018966;28;20282;-50
2022/10/16 13:12:08;;;;;;;2.17;1.30;;;;;;;;;;5008059;28;20225;-54
2022/10/16 13:15:05;;;;;;;2.22;1.42;;;;;;;;;;5025327;28;20283;-51
2022/10/16 13:17:59;;;;;;;1.40;1.30;;;;;;;;;;5022146;28;20334;-52
2022/10/16 13:20:42;;;;;;;2.80;1.60;;;;;;;;;;4991087;28;20234;-50
2022/10/16 13:23:08;;;;;;;1.35;1.13;;;;;;;;;;5005438;28;20307;-49
2022/10/16 13:25:42;;;;;;;3.05;1.70;;;;;;;;;;5020838;28;20223;-51
2022/10/16 13:28:11;;;;;;;1.63;1.40;;;;;;;;;;5021252;28;20294;-50
2022/10/16 13:30:50;;;;;;;2.92;1.30;;;;;;;;;;5005004;28;20664;-51
2022/10/16 13:33:27;;;;;;;1.83;1.50;;;;;;;;;;5018046;28;20220;-50
2022/10/16 13:35:55;;;;;;;1.25;1.15;;;;;;;;;;5010415;28;20294;-53
2022/10/16 13:38:27;;;;;;;1.52;1.40;;;;;;;;;;5030606;28;20317;-51
2022/10/16 13:41:00;;;;;;;2.08;1.63;;;;;;;;;;5029820;28;20643;-51
2022/10/16 13:43:36;;;;;;;1.60;1.30;;;;;;;;;;5025988;28;20278;-52
2022/10/16 13:46:05;;;;;;;2.25;1.40;;;;;;;;;;5013070;28;20282;-49
2022/10/16 13:48:32;;;;;;;3.42;1.77;;;;;;;;;;5029058;28;20278;-49
2022/10/16 13:51:04;;;;;;;3.10;1.80;;;;;;;;;;5015935;28;20641;-51
2022/10/16 13:53:32;;;;;;;5.07;1.50;;;;;;;;;;5022000;28;20231;-49
2022/10/16 13:56:00;;;;;;;2.22;1.70;;;;;;;;;;5021327;28;20742;-53
2022/10/16 13:58:27;;;;;;;3.38;1.65;;;;;;;;;;5014723;28;20204;-51
2022/10/16 14:01:05;;;;;;;2.60;1.90;;;;;;;;;;5020265;28;20290;-51
2022/10/16 14:03:33;;;;;;;2.13;1.35;;;;;;;;;;5002893;28;20264;-49
2022/10/16 14:06:01;;;;;;;2.15;1.60;;;;;;;;;;5003477;28;20206;-52
2022/10/16 14:08:29;;;;;;;1.95;1.60;;;;;;;;;;5005383;28;20291;-50
2022/10/16 14:10:58;;;;;;;2.55;1.80;;;;;;;;;;5004763;28;20230;-50
2022/10/16 14:13:36;;;;;;;2.55;1.52;;;;;;;;;;5020268;28;20216;-51
2022/10/16 14:16:07;;;;;;;2.40;1.60;;;;;;;;;;5019860;28;20635;-52
2022/10/16 14:18:34;;;;;;;2.28;1.50;;;;;;;;;;5003078;28;20742;-49
2022/10/16 14:21:05;;;;;;;2.42;1.40;;;;;;;;;;5018322;28;20200;-52
2022/10/16 14:23:37;;;;;;;2.67;1.50;;;;;;;;;;5006074;28;20286;-49
2022/10/16 14:26:09;;;;;;;1.65;1.40;;;;;;;;;;5019857;28;20194;-51
2022/10/16 14:28:37;;;;;;;3.45;1.80;;;;;;;;;;5017500;28;20287;-52
2022/10/16 14:31:20;;;;;;;2.80;1.58;;;;;;;;;;5018820;28;20215;-49
2022/10/16 14:33:47;;;;;;;2.10;1.65;;;;;;;;;;5014493;28;20279;-52
2022/10/16 14:36:14;;;;;;;1.83;1.50;;;;;;;;;;5020699;28;20658;-52
2022/10/16 14:38:43;;;;;;;2.88;1.48;;;;;;;;;;5002996;28;20203;-49
2022/10/16 14:41:09;;;;;;;1.70;1.30;;;;;;;;;;5001103;28;20204;-50
2022/10/16 14:43:41;;;;;;;2.40;1.60;;;;;;;;;;5003320;28;20315;-49
2022/10/16 14:46:16;;;;;;;3.03;1.80;;;;;;;;;;5002505;28;20202;-49
2022/10/16 14:48:44;;;;;;;2.28;1.98;;;;;;;;;;5003496;28;20226;-51
2022/10/16 14:51:17;;;;;;;5.38;3.60;;;;;;;;;;5001988;28;20207;-51
2022/10/16 14:53:43;;;;;;;3.00;2.08;;;;;;;;;;5016522;28;20192;-50
2022/10/16 14:56:21;;;;;;;2.88;1.90;;;;;;;;;;5017571;28;20578;-50
2022/10/16 14:58:49;;;;;;;2.80;1.83;;;;;;;;;;5019720;28;20551;-52
2022/10/16 15:01:16;;;;;;;2.47;1.70;;;;;;;;;;5003039;28;20679;-53
2022/10/16 15:03:43;;;;;;;3.50;1.70;;;;;;;;;;5028417;28;20246;-52
2022/10/16 15:06:11;;;;;;;3.55;2.08;;;;;;;;;;5009296;28;20855;-54
2022/10/16 15:08:38;;;;;;;3.97;2.40;;;;;;;;;;5027987;28;20610;-49